Time;durP1;ratioP1;P1;durP2;ratioP2;P2;SDS_P1;SDS_P2;PMS_P1;PMS_P2;Temp;Humidity;BMP_temperature;BMP_pressure;BME280_temperature;BME280_humidity;BME280_pressure;Samples;Min_cycle;Max_cycle;Signal;HPM_P1;HPM_P2
2021/01/20 00:01:51;;;;;;;2.70;1.83;;;3.90;99.90;;;;;;5012602;28;20207;-82
2021/01/20 00:04:17;;;;;;;2.13;1.67;;;3.80;99.90;;;;;;5014468;28;20211;-81
2021/01/20 00:06:44;;;;;;;1.65;1.55;;;3.70;99.90;;;;;;5013150;28;20207;-82
2021/01/20 00:09:10;;;;;;;1.45;1.27;;;3.60;99.90;;;;;;5014271;28;20302;-81
2021/01/20 00:11:37;;;;;;;3.17;1.75;;;3.60;99.90;;;;;;5013234;28;20231;-82
2021/01/20 00:14:04;;;;;;;3.88;1.92;;;3.50;99.90;;;;;;5013587;28;20210;-82
2021/01/20 00:16:30;;;;;;;2.22;1.63;;;3.50;99.90;;;;;;5012985;28;20211;-80
2021/01/20 00:18:57;;;;;;;1.42;1.05;;;3.40;99.90;;;;;;5012258;28;20231;-83
2021/01/20 00:21:24;;;;;;;1.63;1.50;;;3.50;99.90;;;;;;5013306;28;20204;-82
2021/01/20 00:23:51;;;;;;;2.90;1.90;;;3.60;99.90;;;;;;5013069;28;20207;-79
2021/01/20 00:26:17;;;;;;;3.20;1.15;;;3.70;99.90;;;;;;5013451;28;20208;-83
2021/01/20 00:28:44;;;;;;;2.45;1.80;;;3.80;99.90;;;;;;5013147;28;20727;-86
2021/01/20 00:31:11;;;;;;;2.05;1.27;;;3.90;99.90;;;;;;5012207;28;20294;-84
2021/01/20 00:33:38;;;;;;;1.23;1.13;;;4.10;99.90;;;;;;5011944;28;20219;-84
2021/01/20 00:36:04;;;;;;;1.55;1.23;;;4.10;99.90;;;;;;5012709;28;20290;-83
2021/01/20 00:38:31;;;;;;;2.75;1.13;;;4.10;99.90;;;;;;5012945;28;20235;-83
2021/01/20 00:40:57;;;;;;;0.77;0.73;;;4.10;99.90;;;;;;5013326;28;20294;-83
2021/01/20 00:43:23;;;;;;;1.05;0.90;;;4.10;99.90;;;;;;5012932;28;20204;-83
2021/01/20 00:45:50;;;;;;;1.10;1.00;;;4.10;99.90;;;;;;5012768;28;20290;-83
2021/01/20 00:48:17;;;;;;;1.10;1.00;;;4.10;99.90;;;;;;5011635;28;20210;-83
2021/01/20 00:50:43;;;;;;;0.88;0.82;;;4.20;99.90;;;;;;5012901;28;20204;-83
2021/01/20 00:53:10;;;;;;;0.82;0.73;;;4.20;99.90;;;;;;5013988;28;20274;-82
2021/01/20 00:55:36;;;;;;;1.33;1.23;;;4.20;99.90;;;;;;5014136;28;20203;-84
2021/01/20 00:58:03;;;;;;;1.35;1.10;;;4.20;99.90;;;;;;5024010;28;20235;-82
2021/01/20 01:00:29;;;;;;;0.82;0.70;;;4.20;99.90;;;;;;5040539;28;20247;-82
2021/01/20 01:02:55;;;;;;;1.02;0.93;;;4.20;99.90;;;;;;5039933;28;20199;-81
2021/01/20 01:05:23;;;;;;;1.10;0.80;;;4.20;99.90;;;;;;5030888;28;20199;-83
2021/01/20 01:07:49;;;;;;;1.08;0.80;;;4.10;99.90;;;;;;5017915;28;20257;-83
2021/01/20 01:10:15;;;;;;;1.17;1.00;;;4.10;99.90;;;;;;5017539;28;20207;-83
2021/01/20 01:12:42;;;;;;;1.92;1.10;;;4.00;99.90;;;;;;5014264;28;20637;-83
2021/01/20 01:15:10;;;;;;;1.35;1.20;;;4.00;99.90;;;;;;5017348;28;20231;-82
2021/01/20 01:17:36;;;;;;;1.10;1.00;;;3.90;99.90;;;;;;5016239;28;20227;-83
2021/01/20 01:20:04;;;;;;;1.13;1.02;;;4.00;99.90;;;;;;5017245;28;20227;-82
2021/01/20 01:22:31;;;;;;;1.30;0.80;;;4.10;99.90;;;;;;5016954;28;20243;-83
2021/01/20 01:24:57;;;;;;;0.70;0.70;;;4.10;99.90;;;;;;5019110;28;20663;-83
2021/01/20 01:27:24;;;;;;;0.85;0.80;;;4.00;99.90;;;;;;5018309;28;20647;-82
2021/01/20 01:29:50;;;;;;;1.50;1.10;;;4.00;99.90;;;;;;5018164;28;20636;-84
2021/01/20 01:32:16;;;;;;;3.15;0.80;;;4.00;99.90;;;;;;5016826;28;20322;-86
2021/01/20 01:34:44;;;;;;;0.90;0.85;;;4.00;99.90;;;;;;5030664;28;20192;-82
2021/01/20 01:37:10;;;;;;;1.77;0.70;;;4.10;99.90;;;;;;5036704;28;20208;-80
2021/01/20 01:39:37;;;;;;;1.88;0.98;;;4.30;99.90;;;;;;5023444;28;20291;-83
2021/01/20 01:42:05;;;;;;;2.15;0.90;;;4.30;99.90;;;;;;5023590;28;20286;-81
2021/01/20 01:44:31;;;;;;;1.48;1.00;;;4.40;99.90;;;;;;5037454;28;20192;-80
2021/01/20 01:46:57;;;;;;;1.30;1.20;;;4.40;99.90;;;;;;5037985;28;20203;-84
2021/01/20 01:49:24;;;;;;;1.73;1.00;;;4.40;99.90;;;;;;5022543;28;20290;-84
2021/01/20 01:51:51;;;;;;;1.45;1.13;;;4.40;99.90;;;;;;5018085;28;20334;-84
2021/01/20 01:54:18;;;;;;;1.45;0.75;;;4.30;99.90;;;;;;5017553;28;20262;-83
2021/01/20 01:56:46;;;;;;;1.50;1.10;;;4.40;99.90;;;;;;5016059;28;20283;-84
2021/01/20 01:59:12;;;;;;;1.00;0.90;;;4.30;99.90;;;;;;5016030;28;20270;-82
2021/01/20 02:01:39;;;;;;;1.88;1.23;;;4.30;99.90;;;;;;5014594;28;20693;-83
2021/01/20 02:04:05;;;;;;;1.58;0.93;;;4.30;99.90;;;;;;5016699;28;20298;-83
2021/01/20 02:06:32;;;;;;;0.95;0.80;;;4.40;99.90;;;;;;5015839;28;20208;-83
2021/01/20 02:08:59;;;;;;;0.90;0.80;;;4.30;99.90;;;;;;5015996;28;20643;-83
2021/01/20 02:11:40;;;;;;;1.25;1.15;;;4.30;99.90;;;;;;5014796;28;20290;-84
2021/01/20 02:14:20;;;;;;;1.08;0.98;;;4.20;99.90;;;;;;5016091;28;20246;-84
2021/01/20 02:16:56;;;;;;;2.55;0.80;;;4.20;99.90;;;;;;5015006;28;20207;-85
2021/01/20 02:19:42;;;;;;;4.80;1.67;;;4.20;99.90;;;;;;5015955;28;20238;-85
2021/01/20 02:22:23;;;;;;;1.25;1.08;;;4.20;99.90;;;;;;5015907;28;20294;-84
2021/01/20 02:24:58;;;;;;;1.00;0.90;;;4.10;99.90;;;;;;5015823;28;20609;-85
2021/01/20 02:27:33;;;;;;;1.05;0.63;;;4.10;99.90;;;;;;5015641;28;20225;-84
2021/01/20 02:30:08;;;;;;;0.85;0.85;;;4.10;99.90;;;;;;5014830;28;20295;-85
2021/01/20 02:32:36;;;;;;;1.88;1.23;;;4.00;99.90;;;;;;5013962;28;20615;-85
2021/01/20 02:35:03;;;;;;;1.27;0.90;;;4.00;99.90;;;;;;5015005;28;20685;-84
2021/01/20 02:37:32;;;;;;;1.25;1.02;;;4.00;99.90;;;;;;5014954;28;20204;-86
2021/01/20 02:40:00;;;;;;;0.60;0.60;;;4.00;99.90;;;;;;5014870;28;20772;-81
2021/01/20 02:42:26;;;;;;;2.90;1.13;;;4.00;99.90;;;;;;5014886;28;20663;-83
2021/01/20 02:44:53;;;;;;;3.72;1.10;;;4.00;99.90;;;;;;5015409;28;20338;-85
2021/01/20 02:47:20;;;;;;;1.08;0.98;;;4.00;99.90;;;;;;5013975;28;20208;-83
2021/01/20 02:49:47;;;;;;;1.10;0.60;;;4.00;99.90;;;;;;5015300;28;20250;-84
2021/01/20 02:52:23;;;;;;;1.77;0.88;;;4.00;99.90;;;;;;5014904;28;20248;-81
2021/01/20 02:54:53;;;;;;;1.63;0.85;;;4.00;99.90;;;;;;5014932;28;20583;-82
2021/01/20 02:57:19;;;;;;;0.90;0.90;;;4.10;99.90;;;;;;5015164;28;20663;-81
2021/01/20 02:59:47;;;;;;;0.80;0.80;;;4.00;99.90;;;;;;5014966;28;20647;-81
2021/01/20 03:02:17;;;;;;;1.67;1.02;;;4.00;99.90;;;;;;5013764;28;20294;-85
2021/01/20 03:04:46;;;;;;;0.90;0.85;;;4.10;99.90;;;;;;5014976;28;20291;-85
2021/01/20 03:07:14;;;;;;;0.90;0.85;;;4.10;99.90;;;;;;5014651;28;20298;-84
2021/01/20 03:09:40;;;;;;;1.55;0.82;;;4.10;99.90;;;;;;5014777;28;20222;-84
2021/01/20 03:12:07;;;;;;;2.10;0.82;;;4.00;99.90;;;;;;5014997;28;20243;-84
2021/01/20 03:14:34;;;;;;;2.00;1.30;;;4.00;99.90;;;;;;5014741;28;20295;-84
2021/01/20 03:17:00;;;;;;;0.80;0.80;;;4.00;99.90;;;;;;5013808;28;20223;-84
2021/01/20 03:19:27;;;;;;;0.77;0.70;;;4.00;99.90;;;;;;5014749;28;20235;-85
2021/01/20 03:21:54;;;;;;;0.75;0.73;;;4.00;99.90;;;;;;5014090;28;20298;-83
2021/01/20 03:24:22;;;;;;;1.70;1.50;;;4.00;99.90;;;;;;4996368;28;20200;-84
2021/01/20 03:26:48;;;;;;;1.30;1.15;;;4.00;99.90;;;;;;5014511;28;20204;-84
2021/01/20 03:29:17;;;;;;;1.58;1.15;;;4.00;99.90;;;;;;5014257;28;20294;-83
2021/01/20 03:31:43;;;;;;;4.00;1.10;;;4.00;99.90;;;;;;5013080;28;20208;-84
2021/01/20 03:34:10;;;;;;;1.13;0.98;;;3.90;99.90;;;;;;5014269;28;20682;-84
2021/01/20 03:36:36;;;;;;;1.45;1.05;;;3.90;99.90;;;;;;5014152;28;20231;-83
2021/01/20 03:39:04;;;;;;;1.25;1.00;;;3.90;99.90;;;;;;5014190;28;20231;-83
2021/01/20 03:41:30;;;;;;;1.60;0.85;;;3.80;99.90;;;;;;5014704;28;20290;-82
2021/01/20 03:43:57;;;;;;;3.33;1.15;;;3.90;99.90;;;;;;5014311;28;20243;-85
2021/01/20 03:46:23;;;;;;;2.08;1.20;;;4.00;99.90;;;;;;5014220;28;20295;-85
2021/01/20 03:48:49;;;;;;;1.40;1.27;;;4.00;99.90;;;;;;5012819;28;20295;-83
2021/01/20 03:51:16;;;;;;;1.20;1.10;;;3.80;99.90;;;;;;5013748;28;20231;-84
2021/01/20 03:53:42;;;;;;;1.02;0.82;;;3.80;99.90;;;;;;5013468;28;20240;-84
2021/01/20 03:56:10;;;;;;;0.85;0.85;;;3.90;99.90;;;;;;5013365;28;20298;-84
2021/01/20 03:58:36;;;;;;;1.50;1.10;;;3.70;99.90;;;;;;5013433;28;20727;-85
2021/01/20 04:01:02;;;;;;;1.88;1.15;;;3.60;99.90;;;;;;5014018;28;20294;-83
2021/01/20 04:03:29;;;;;;;1.58;0.93;;;3.60;99.90;;;;;;5012742;28;20674;-84
2021/01/20 04:05:55;;;;;;;1.40;1.15;;;3.60;99.90;;;;;;5013796;28;20739;-85
2021/01/20 04:08:21;;;;;;;1.30;0.90;;;3.60;99.90;;;;;;5013395;28;20290;-83
2021/01/20 04:10:50;;;;;;;0.93;0.70;;;3.60;99.90;;;;;;5013712;28;20657;-83
2021/01/20 04:13:19;;;;;;;1.83;0.90;;;3.60;99.90;;;;;;5013527;28;20204;-84
2021/01/20 04:15:45;;;;;;;1.50;0.98;;;3.60;99.90;;;;;;5013826;28;20234;-84
2021/01/20 04:18:12;;;;;;;2.45;1.23;;;3.70;99.90;;;;;;5012374;28;20320;-84
2021/01/20 04:20:38;;;;;;;0.80;0.80;;;3.70;99.90;;;;;;5013495;28;20318;-82
2021/01/20 04:23:04;;;;;;;1.45;1.13;;;3.70;99.90;;;;;;5013099;28;20746;-83
2021/01/20 04:25:31;;;;;;;1.58;1.05;;;3.70;99.90;;;;;;5013685;28;20794;-83
2021/01/20 04:27:57;;;;;;;1.10;0.90;;;3.70;99.90;;;;;;5013590;28;20636;-81
2021/01/20 04:30:27;;;;;;;2.65;1.13;;;3.60;99.90;;;;;;5013439;28;20215;-81
2021/01/20 04:32:53;;;;;;;0.95;0.95;;;3.60;99.90;;;;;;5012001;28;20748;-84
2021/01/20 04:35:19;;;;;;;4.07;1.17;;;3.60;99.90;;;;;;5013328;28;20203;-85
2021/01/20 04:37:46;;;;;;;1.92;0.90;;;3.60;99.90;;;;;;5013026;28;20634;-81
2021/01/20 04:40:13;;;;;;;1.35;1.25;;;3.70;99.90;;;;;;5013800;28;20203;-81
2021/01/20 04:42:40;;;;;;;2.15;0.90;;;3.70;99.90;;;;;;5015521;28;20234;-83
2021/01/20 04:45:07;;;;;;;1.30;1.20;;;3.70;99.90;;;;;;5013101;28;20302;-83
2021/01/20 04:47:36;;;;;;;1.50;1.15;;;3.70;99.90;;;;;;5012092;28;20209;-82
2021/01/20 04:50:05;;;;;;;0.95;0.80;;;3.80;99.90;;;;;;5013677;28;20235;-84
2021/01/20 04:52:33;;;;;;;1.38;0.80;;;3.90;99.90;;;;;;5013060;28;20267;-81
2021/01/20 04:55:01;;;;;;;2.22;1.08;;;3.90;99.90;;;;;;5013097;28;20204;-83
2021/01/20 04:57:28;;;;;;;1.38;1.27;;;3.90;99.90;;;;;;5013267;28;20210;-81
2021/01/20 04:59:55;;;;;;;1.33;1.20;;;3.80;99.90;;;;;;5013553;28;20327;-82
2021/01/20 05:02:24;;;;;;;6.25;3.38;;;3.80;99.90;;;;;;5012086;28;20203;-83
2021/01/20 05:04:52;;;;;;;5.50;3.63;;;3.80;99.90;;;;;;5013159;28;20207;-82
2021/01/20 05:07:19;;;;;;;2.10;1.90;;;3.80;99.90;;;;;;5012999;28;20722;-82
2021/01/20 05:09:46;;;;;;;5.13;2.60;;;3.70;99.90;;;;;;5013046;28;20207;-84
2021/01/20 05:12:33;;;;;;;3.42;2.50;;;3.70;99.90;;;;;;5013781;28;20645;-85
2021/01/20 05:15:00;;;;;;;2.22;2.03;;;3.70;99.90;;;;;;5013534;28;20207;-85
2021/01/20 05:17:26;;;;;;;3.30;2.80;;;3.70;99.90;;;;;;5012493;28;20281;-86
2021/01/20 05:19:53;;;;;;;4.93;2.30;;;3.70;99.90;;;;;;5013227;28;20318;-84
2021/01/20 05:22:19;;;;;;;2.25;2.10;;;3.70;99.90;;;;;;5013760;28;20210;-82
2021/01/20 05:24:57;;;;;;;2.22;1.70;;;3.70;99.90;;;;;;5013136;28;20213;-79
2021/01/20 05:27:27;;;;;;;2.15;1.42;;;3.70;99.90;;;;;;5013161;28;20203;-83
2021/01/20 05:30:01;;;;;;;1.15;1.05;;;3.70;99.90;;;;;;5013509;28;20204;-88
2021/01/20 05:32:28;;;;;;;2.25;1.70;;;3.70;99.90;;;;;;5012692;28;20574;-86
2021/01/20 05:35:00;;;;;;;1.60;1.35;;;3.70;99.90;;;;;;5013086;28;20358;-84
2021/01/20 05:37:27;;;;;;;2.35;1.50;;;3.80;99.90;;;;;;5014416;28;20287;-87
2021/01/20 05:40:07;;;;;;;1.40;1.30;;;3.80;99.90;;;;;;5016187;28;20231;-85
2021/01/20 05:42:49;;;;;;;0.93;0.90;;;4.00;99.90;;;;;;5016287;28;20294;-86
2021/01/20 05:45:16;;;;;;;1.30;0.93;;;4.40;99.90;;;;;;5000871;28;20211;-85
2021/01/20 05:48:06;;;;;;;2.28;2.03;;;4.70;99.90;;;;;;5017668;28;20219;-86
2021/01/20 05:50:34;;;;;;;1.50;1.40;;;4.70;99.90;;;;;;5017786;28;20291;-86
2021/01/20 05:53:05;;;;;;;1.40;1.30;;;4.70;99.90;;;;;;5030035;28;20262;-84
2021/01/20 05:55:33;;;;;;;2.00;1.20;;;4.80;99.90;;;;;;5037339;28;20188;-82
2021/01/20 05:58:01;;;;;;;1.80;1.50;;;4.70;99.90;;;;;;5026598;28;20214;-85
2021/01/20 06:00:28;;;;;;;2.13;1.40;;;4.70;99.90;;;;;;5025106;28;20204;-84
2021/01/20 06:02:55;;;;;;;1.13;0.80;;;4.70;99.90;;;;;;5038780;28;20204;-85
2021/01/20 06:05:22;;;;;;;1.48;1.38;;;4.80;99.90;;;;;;5040079;28;20192;-86
2021/01/20 06:07:54;;;;;;;2.40;2.28;;;4.90;99.90;;;;;;5034350;28;20234;-87
2021/01/20 06:10:21;;;;;;;3.13;1.92;;;4.80;99.90;;;;;;5021387;28;20282;-87
2021/01/20 06:12:48;;;;;;;1.27;0.82;;;4.80;99.90;;;;;;5019642;28;20317;-87
2021/01/20 06:15:15;;;;;;;1.10;1.10;;;4.80;99.90;;;;;;5014510;28;20231;-84
2021/01/20 06:17:43;;;;;;;1.55;1.20;;;4.80;99.90;;;;;;5035354;28;20207;-84
2021/01/20 06:20:11;;;;;;;1.25;1.13;;;4.90;99.90;;;;;;5020755;28;20223;-83
2021/01/20 06:22:46;;;;;;;2.80;1.15;;;5.00;99.90;;;;;;5039629;28;20203;-85
2021/01/20 06:25:20;;;;;;;1.13;0.73;;;5.10;99.90;;;;;;5039853;28;20194;-86
2021/01/20 06:27:52;;;;;;;2.13;1.10;;;5.10;99.90;;;;;;5021373;28;20298;-86
2021/01/20 06:30:23;;;;;;;1.42;1.33;;;5.10;99.90;;;;;;5016907;28;20667;-86
2021/01/20 06:32:50;;;;;;;2.05;1.02;;;5.10;99.90;;;;;;5014572;28;20215;-86
2021/01/20 06:35:18;;;;;;;1.50;1.00;;;5.10;99.90;;;;;;5015416;28;20212;-86
2021/01/20 06:37:47;;;;;;;2.05;1.10;;;5.10;99.90;;;;;;5015209;28;20207;-86
2021/01/20 06:40:41;;;;;;;3.08;2.05;;;5.10;99.90;;;;;;5014712;28;20235;-85
2021/01/20 06:43:35;;;;;;;1.40;1.30;;;5.10;99.90;;;;;;5015312;28;20346;-86
2021/01/20 06:46:13;;;;;;;1.88;1.77;;;5.10;99.90;;;;;;5015178;28;20230;-84
2021/01/20 06:49:15;;;;;;;1.65;1.30;;;5.00;99.90;;;;;;5013868;28;20217;-86
2021/01/20 06:51:43;;;;;;;1.52;1.42;;;5.00;99.90;;;;;;5011646;28;20205;-84
2021/01/20 06:54:15;;;;;;;2.75;1.77;;;5.00;99.90;;;;;;5014711;28;20235;-85
2021/01/20 06:56:47;;;;;;;2.20;1.55;;;4.90;99.90;;;;;;5014294;28;20655;-84
2021/01/20 06:59:16;;;;;;;1.42;1.20;;;4.90;99.90;;;;;;5014972;28;20231;-86
2021/01/20 07:02:03;;;;;;;15.45;12.00;;;4.90;99.90;;;;;;5013542;28;20208;-85
2021/01/20 07:05:03;;;;;;;2.80;2.33;;;4.90;99.90;;;;;;5014857;28;20206;-85
2021/01/20 07:08:04;;;;;;;1.58;1.48;;;4.90;99.90;;;;;;5014447;28;20266;-86
2021/01/20 07:11:06;;;;;;;2.45;1.85;;;5.00;99.90;;;;;;5014583;28;20302;-85
2021/01/20 07:13:34;;;;;;;2.38;1.67;;;5.10;99.90;;;;;;5010837;28;20239;-85
2021/01/20 07:16:04;;;;;;;8.63;1.70;;;5.10;99.90;;;;;;5014634;28;20238;-86
2021/01/20 07:18:31;;;;;;;2.40;2.00;;;5.10;99.90;;;;;;5013203;28;20318;-85
2021/01/20 07:20:58;;;;;;;1.50;1.25;;;5.20;99.90;;;;;;5014493;28;20675;-84
2021/01/20 07:23:24;;;;;;;2.15;1.50;;;5.30;99.90;;;;;;5014199;28;20556;-85
2021/01/20 07:25:54;;;;;;;2.67;1.67;;;5.40;99.90;;;;;;5014544;28;20214;-86
2021/01/20 07:28:24;;;;;;;2.10;1.42;;;5.40;99.90;;;;;;5014268;28;20233;-87
2021/01/20 07:31:09;;;;;;;1.63;1.40;;;5.50;99.90;;;;;;5014150;28;20204;-87
2021/01/20 07:33:35;;;;;;;4.30;2.03;;;5.50;99.90;;;;;;5013697;28;20669;-86
2021/01/20 07:36:16;;;;;;;2.83;1.75;;;5.60;99.90;;;;;;5014252;28;20379;-86
2021/01/20 07:38:45;;;;;;;3.13;2.33;;;5.70;99.90;;;;;;5013672;28;20593;-85
2021/01/20 07:41:22;;;;;;;2.35;1.75;;;5.70;99.90;;;;;;5014076;28;20208;-86
2021/01/20 07:43:51;;;;;;;1.73;1.60;;;5.80;99.90;;;;;;5013991;28;20295;-86
2021/01/20 07:46:21;;;;;;;3.22;1.80;;;5.90;99.60;;;;;;5013958;28;20206;-86
2021/01/20 07:48:48;;;;;;;1.65;1.30;;;6.00;99.50;;;;;;5012889;28;20211;-87
2021/01/20 07:51:16;;;;;;;2.08;1.55;;;6.00;99.60;;;;;;5013902;28;20200;-88
2021/01/20 07:53:54;;;;;;;2.10;1.83;;;6.10;99.10;;;;;;5013556;28;20266;-85
2021/01/20 07:56:22;;;;;;;9.07;4.40;;;6.10;99.50;;;;;;5013873;28;20290;-86
2021/01/20 07:58:48;;;;;;;2.58;2.38;;;6.10;99.60;;;;;;5013830;28;20569;-87
2021/01/20 08:01:28;;;;;;;4.75;2.80;;;6.10;99.90;;;;;;5013762;28;20257;-87
2021/01/20 08:03:56;;;;;;;6.07;4.28;;;6.10;99.70;;;;;;5012507;28;20207;-83
2021/01/20 08:06:23;;;;;;;4.68;3.22;;;6.20;99.60;;;;;;5013644;28;20299;-85
2021/01/20 08:08:54;;;;;;;2.75;1.80;;;6.20;99.20;;;;;;5012635;28;20579;-87
2021/01/20 08:11:22;;;;;;;4.75;2.28;;;6.20;99.40;;;;;;5013492;28;20287;-85
2021/01/20 08:13:50;;;;;;;1.98;1.60;;;6.20;99.30;;;;;;5013730;28;20203;-86
2021/01/20 08:16:17;;;;;;;1.67;1.58;;;6.30;99.30;;;;;;5013573;28;20204;-83
2021/01/20 08:18:46;;;;;;;1.50;1.40;;;6.40;98.90;;;;;;5012063;28;20231;-85
2021/01/20 08:21:13;;;;;;;1.70;1.60;;;6.40;99.10;;;;;;5013294;28;20231;-87
2021/01/20 08:23:51;;;;;;;3.75;1.85;;;6.40;99.30;;;;;;5013299;28;20298;-91
2021/01/20 08:26:25;;;;;;;1.30;1.20;;;6.50;99.30;;;;;;5013737;28;20302;-88
2021/01/20 08:29:05;;;;;;;1.90;1.20;;;6.40;99.10;;;;;;5013316;28;20204;-86
2021/01/20 08:31:32;;;;;;;3.78;1.65;;;6.50;99.00;;;;;;5014152;28;20223;-90
2021/01/20 08:34:19;;;;;;;2.65;1.65;;;6.60;99.20;;;;;;5012746;28;20289;-90
2021/01/20 08:36:55;;;;;;;3.25;2.05;;;6.70;98.80;;;;;;5013800;28;20295;-89
2021/01/20 08:39:22;;;;;;;2.53;1.88;;;6.50;98.90;;;;;;4994855;28;20714;-89
2021/01/20 08:42:22;;;;;;;2.22;1.70;;;6.60;99.50;;;;;;5013218;28;20286;-89
2021/01/20 08:45:11;;;;;;;2.65;1.90;;;6.60;99.20;;;;;;5013123;28;20576;-86
2021/01/20 08:47:49;;;;;;;3.47;2.35;;;6.70;99.00;;;;;;5011977;28;20207;-87
2021/01/20 08:50:19;;;;;;;2.63;2.03;;;6.70;98.60;;;;;;5013322;28;20215;-87
2021/01/20 08:52:50;;;;;;;3.08;2.55;;;6.80;99.10;;;;;;5013810;28;20318;-88
2021/01/20 08:55:24;;;;;;;3.47;3.17;;;6.80;99.10;;;;;;5012875;28;20608;-88
2021/01/20 08:58:31;;;;;;;3.50;3.10;;;6.80;98.70;;;;;;5012817;28;20298;-89
2021/01/20 09:01:00;;;;;;;3.97;3.50;;;6.90;98.80;;;;;;5007243;28;20466;-88
2021/01/20 09:03:27;;;;;;;5.10;3.35;;;6.90;98.80;;;;;;5011667;28;20541;-88
2021/01/20 09:05:56;;;;;;;5.40;3.20;;;6.90;98.80;;;;;;5013446;28;20207;-88
2021/01/20 09:08:24;;;;;;;6.85;3.50;;;6.90;98.90;;;;;;5012482;28;20672;-87
2021/01/20 09:10:51;;;;;;;3.28;2.50;;;6.80;99.10;;;;;;5012932;28;20290;-89
2021/01/20 09:13:18;;;;;;;5.40;3.00;;;6.90;99.00;;;;;;5012979;28;20249;-89
2021/01/20 09:15:46;;;;;;;5.00;3.30;;;6.90;99.40;;;;;;5013020;28;20461;-88
2021/01/20 09:18:13;;;;;;;3.10;2.60;;;6.80;98.90;;;;;;5011170;28;20450;-89
2021/01/20 09:20:39;;;;;;;3.20;2.90;;;6.80;98.80;;;;;;5015456;28;20290;-89
2021/01/20 09:23:09;;;;;;;3.43;2.77;;;6.80;98.90;;;;;;5016143;28;20212;-89
2021/01/20 09:25:36;;;;;;;4.20;3.30;;;6.80;99.40;;;;;;5016568;28;20538;-88
2021/01/20 09:28:06;;;;;;;5.77;2.90;;;6.80;98.80;;;;;;5016968;28;20545;-89
2021/01/20 09:30:33;;;;;;;5.67;3.83;;;6.80;98.90;;;;;;5016676;28;20462;-89
2021/01/20 09:33:00;;;;;;;4.90;3.30;;;6.80;98.90;;;;;;5016011;28;20545;-87
2021/01/20 09:35:27;;;;;;;3.43;2.80;;;6.80;98.80;;;;;;5016864;28;20486;-90
2021/01/20 09:37:54;;;;;;;3.60;2.77;;;6.80;98.80;;;;;;5016767;28;20454;-89
2021/01/20 09:40:23;;;;;;;3.70;2.60;;;6.90;98.80;;;;;;5017318;28;20529;-93
2021/01/20 09:42:51;;;;;;;3.27;2.93;;;7.00;98.50;;;;;;5018230;28;20302;-91
2021/01/20 09:45:19;;;;;;;2.33;2.10;;;7.00;98.50;;;;;;5018632;28;20546;-84
2021/01/20 09:47:46;;;;;;;3.00;2.70;;;7.10;98.50;;;;;;5015664;28;20466;-86
2021/01/20 09:50:14;;;;;;;2.77;2.47;;;7.10;98.40;;;;;;5017987;28;20454;-86
2021/01/20 09:52:41;;;;;;;3.83;2.87;;;7.10;98.50;;;;;;5018163;28;20569;-83
2021/01/20 09:55:08;;;;;;;4.68;3.45;;;7.10;98.50;;;;;;5018678;28;20552;-87
2021/01/20 09:57:36;;;;;;;3.40;3.10;;;7.20;98.60;;;;;;5017620;28;20199;-87
2021/01/20 10:00:06;;;;;;;3.77;2.97;;;7.20;98.50;;;;;;5017815;28;20505;-86
2021/01/20 10:02:32;;;;;;;3.57;3.27;;;7.30;98.40;;;;;;5017816;28;20525;-89
2021/01/20 10:04:58;;;;;;;2.93;2.50;;;7.40;98.50;;;;;;5028126;28;20470;-87
2021/01/20 10:07:25;;;;;;;5.40;2.73;;;7.40;98.30;;;;;;5034974;28;20453;-87
2021/01/20 10:09:51;;;;;;;4.57;3.20;;;7.40;98.00;;;;;;5031903;28;20489;-90
2021/01/20 10:12:18;;;;;;;6.53;2.80;;;7.40;98.20;;;;;;5030480;28;20450;-89
2021/01/20 10:14:46;;;;;;;3.07;2.80;;;7.40;98.20;;;;;;5039449;28;20419;-89
2021/01/20 10:17:13;;;;;;;3.40;2.30;;;7.40;98.10;;;;;;5038772;28;20465;-86
2021/01/20 10:19:40;;;;;;;2.80;2.10;;;7.50;98.00;;;;;;5039701;28;20513;-86
2021/01/20 10:22:06;;;;;;;4.07;2.70;;;7.50;97.90;;;;;;5037547;28;20450;-83
2021/01/20 10:24:33;;;;;;;5.10;2.93;;;7.50;98.00;;;;;;5024995;28;20477;-88
2021/01/20 10:27:00;;;;;;;4.60;2.53;;;7.40;98.20;;;;;;5016754;28;20551;-87
2021/01/20 10:29:26;;;;;;;4.27;2.47;;;7.40;97.90;;;;;;5016184;28;20450;-86
2021/01/20 10:31:55;;;;;;;3.53;2.23;;;7.50;98.00;;;;;;5013726;28;20450;-91
2021/01/20 10:34:22;;;;;;;5.00;2.63;;;7.60;98.20;;;;;;5016057;28;20459;-91
2021/01/20 10:36:48;;;;;;;2.53;2.33;;;7.50;97.50;;;;;;5016079;28;20490;-91
2021/01/20 10:39:15;;;;;;;2.40;2.30;;;7.60;97.70;;;;;;5017575;28;20498;-92
2021/01/20 10:41:42;;;;;;;3.37;2.67;;;7.60;97.70;;;;;;5018176;28;20557;-93
2021/01/20 10:44:08;;;;;;;4.50;3.07;;;7.50;98.10;;;;;;5016020;28;21037;-85
2021/01/20 10:46:34;;;;;;;4.67;3.70;;;7.40;98.10;;;;;;5015263;28;20541;-84
2021/01/20 10:49:02;;;;;;;4.77;3.17;;;7.50;98.60;;;;;;5014998;28;20578;-87
2021/01/20 10:51:33;;;;;;;3.40;2.70;;;7.30;98.40;;;;;;5016754;28;21093;-86
2021/01/20 10:54:00;;;;;;;3.47;2.87;;;7.40;98.50;;;;;;5012502;28;20530;-88
2021/01/20 10:56:27;;;;;;;2.87;2.43;;;7.40;98.10;;;;;;5012043;28;20533;-89
2021/01/20 10:58:53;;;;;;;3.20;2.50;;;7.40;98.30;;;;;;5013374;28;20617;-89
2021/01/20 11:01:20;;;;;;;3.60;2.70;;;7.40;98.30;;;;;;5014206;28;20494;-90
2021/01/20 11:03:47;;;;;;;2.77;2.57;;;7.50;98.30;;;;;;5012409;28;20446;-84
2021/01/20 11:06:14;;;;;;;2.70;2.50;;;7.50;98.50;;;;;;5013397;28;20524;-84
2021/01/20 11:08:41;;;;;;;5.10;2.77;;;7.50;98.10;;;;;;5012990;28;20438;-88
2021/01/20 11:11:07;;;;;;;3.87;2.80;;;7.50;98.10;;;;;;5013877;28;20536;-86
2021/01/20 11:13:34;;;;;;;2.97;2.47;;;7.70;98.20;;;;;;5013176;28;20449;-87
2021/01/20 11:16:02;;;;;;;3.30;2.63;;;7.80;98.00;;;;;;5013005;28;20443;-84
2021/01/20 11:18:32;;;;;;;5.10;3.07;;;7.90;98.10;;;;;;5011678;28;20465;-86
2021/01/20 11:20:58;;;;;;;4.00;3.10;;;8.10;98.10;;;;;;5010248;28;20522;-88
2021/01/20 11:23:27;;;;;;;3.10;2.80;;;8.20;97.30;;;;;;5012680;28;20533;-88
2021/01/20 11:25:55;;;;;;;2.80;2.33;;;8.40;97.30;;;;;;5012803;28;20443;-88
2021/01/20 11:28:23;;;;;;;4.00;3.20;;;8.40;97.20;;;;;;5013930;28;20530;-86
2021/01/20 11:30:50;;;;;;;4.47;3.40;;;8.40;97.10;;;;;;5014615;28;20557;-87
2021/01/20 11:33:17;;;;;;;4.30;2.90;;;8.40;96.80;;;;;;5013668;28;20454;-84
2021/01/20 11:35:46;;;;;;;3.53;3.23;;;8.50;96.70;;;;;;5014569;28;20446;-85
2021/01/20 11:38:12;;;;;;;4.03;2.90;;;8.40;96.90;;;;;;5014809;28;20439;-85
2021/01/20 11:40:40;;;;;;;3.67;3.37;;;8.40;96.80;;;;;;5014574;28;20550;-87
2021/01/20 11:43:07;;;;;;;4.40;3.30;;;8.50;96.80;;;;;;5014530;28;20820;-86
2021/01/20 11:45:35;;;;;;;4.80;2.93;;;8.40;96.90;;;;;;5014788;28;20485;-83
2021/01/20 11:48:03;;;;;;;3.87;3.40;;;8.50;97.20;;;;;;5012580;28;20455;-86
2021/01/20 11:50:29;;;;;;;3.63;3.23;;;8.60;96.90;;;;;;5014018;28;20830;-84
2021/01/20 11:52:56;;;;;;;5.28;3.42;;;8.60;96.60;;;;;;5012654;28;20537;-89
2021/01/20 11:55:23;;;;;;;4.78;2.88;;;8.60;96.40;;;;;;5013442;28;21025;-85
2021/01/20 11:57:51;;;;;;;5.03;2.80;;;8.60;97.50;;;;;;5013667;28;20651;-87
2021/01/20 12:00:21;;;;;;;3.97;3.00;;;8.60;96.60;;;;;;5013789;28;20584;-84
2021/01/20 12:02:48;;;;;;;5.43;3.13;;;8.70;98.90;;;;;;5011734;28;20470;-83
2021/01/20 12:05:17;;;;;;;5.20;2.30;;;8.60;97.60;;;;;;5013260;28;20533;-83
2021/01/20 12:07:45;;;;;;;3.93;2.67;;;8.70;98.70;;;;;;5013002;28;20537;-82
2021/01/20 12:10:12;;;;;;;3.70;2.30;;;8.60;97.50;;;;;;5013357;28;20457;-83
2021/01/20 12:12:39;;;;;;;3.00;1.80;;;8.60;97.10;;;;;;5013099;28;20540;-82
2021/01/20 12:15:08;;;;;;;3.30;2.27;;;8.60;96.60;;;;;;4946475;28;20545;-84
2021/01/20 12:17:35;;;;;;;7.40;2.90;;;8.60;96.50;;;;;;5012033;28;20451;-81
2021/01/20 12:20:01;;;;;;;3.10;2.80;;;8.60;96.50;;;;;;5013097;28;20505;-82
2021/01/20 12:22:28;;;;;;;2.83;2.50;;;8.60;96.50;;;;;;5013103;28;20899;-83
2021/01/20 12:24:54;;;;;;;6.30;2.70;;;8.70;96.40;;;;;;5013037;28;20477;-84
2021/01/20 12:27:22;;;;;;;3.73;2.77;;;8.70;95.70;;;;;;4978651;28;20550;-83
2021/01/20 12:29:48;;;;;;;3.37;2.50;;;8.80;96.30;;;;;;5013461;28;20478;-92
2021/01/20 12:32:16;;;;;;;3.63;2.80;;;8.90;96.20;;;;;;5017391;28;20549;-87
2021/01/20 12:34:42;;;;;;;3.83;2.30;;;8.90;96.00;;;;;;5015479;28;20553;-87
2021/01/20 12:37:09;;;;;;;2.00;1.90;;;8.90;96.00;;;;;;5013409;28;20569;-87
2021/01/20 12:39:35;;;;;;;2.20;1.83;;;8.90;95.90;;;;;;5013398;28;20589;-85
2021/01/20 12:42:01;;;;;;;4.60;2.73;;;8.80;96.20;;;;;;5014671;28;20482;-87
2021/01/20 12:44:28;;;;;;;2.43;2.10;;;8.90;95.90;;;;;;5013467;28;21041;-86
2021/01/20 12:46:54;;;;;;;2.93;2.10;;;8.90;95.60;;;;;;5013596;28;20541;-86
2021/01/20 12:49:21;;;;;;;2.53;2.20;;;9.00;95.30;;;;;;5015388;28;20469;-87
2021/01/20 12:51:48;;;;;;;2.53;1.70;;;9.00;95.10;;;;;;5014870;28;20465;-88
2021/01/20 12:54:14;;;;;;;4.00;2.00;;;9.00;95.50;;;;;;5012490;28;20564;-89
2021/01/20 12:56:41;;;;;;;5.67;2.90;;;9.00;95.70;;;;;;5013021;28;20541;-89
2021/01/20 12:59:07;;;;;;;6.80;3.70;;;9.10;95.50;;;;;;5013142;28;20968;-89
2021/01/20 13:01:34;;;;;;;5.60;5.10;;;9.00;96.10;;;;;;5014148;28;21033;-87
2021/01/20 13:04:00;;;;;;;4.20;3.20;;;9.00;96.00;;;;;;5012681;28;21033;-88
2021/01/20 13:06:28;;;;;;;6.60;4.60;;;9.00;96.20;;;;;;5013416;28;20450;-87
2021/01/20 13:08:57;;;;;;;5.37;3.90;;;8.90;96.50;;;;;;5013274;28;20485;-88